Pilot Knob, Missouri
Current Conditions -  °F | °C
As of 10:35 AM on Sunday 21 Dec 2014 (Local Time) from KFAM Reporting Station
Overcast Overcast  
Wind Chill: 33°   Ceiling: 3000
Heat Index: 39°   Visibility: 10mi
Dew Point: 34°   Wind: 9mph
Humidity: 81%   Direction: 100°E
Pressure: 30.19"   Gusts: NA
Location:  37.62°N, 90.64°W
Report Text: KFAM 211635Z AUTO 10008KT 10SM OVC030 04/01 A3019 RMK AO1
Loading
Personal Weather Stations






























Interactive Weather Map New forecast layout! Learn more

10-Day Weather Forecast

Advertisements
Track Severe Weather on mobile